sensor_id;sensor_type;location;lat;lon;timestamp;P1;durP1;ratioP1;P2;durP2;ratioP2
12878;SDS011;20617;49.476;10.986;2023-10-08T00:01:40;6.13;;;3.10;;
12878;SDS011;20617;49.476;10.986;2023-10-08T00:03:48;4.47;;;2.92;;
12878;SDS011;20617;49.476;10.986;2023-10-08T00:05:55;4.85;;;3.00;;
12878;SDS011;20617;49.476;10.986;2023-10-08T00:08:01;8.25;;;3.28;;
12878;SDS011;20617;49.476;10.986;2023-10-08T00:10:04;9.15;;;3.58;;
12878;SDS011;20617;49.476;10.986;2023-10-08T00:12:10;9.13;;;3.92;;
12878;SDS011;20617;49.476;10.986;2023-10-08T00:14:15;5.43;;;3.30;;
12878;SDS011;20617;49.476;10.986;2023-10-08T00:16:23;7.55;;;3.65;;
12878;SDS011;20617;49.476;10.986;2023-10-08T00:18:30;8.25;;;3.50;;
12878;SDS011;20617;49.476;10.986;2023-10-08T00:20:40;6.57;;;3.35;;
12878;SDS011;20617;49.476;10.986;2023-10-08T00:22:56;7.95;;;3.20;;
12878;SDS011;20617;49.476;10.986;2023-10-08T00:25:04;6.28;;;3.50;;
12878;SDS011;20617;49.476;10.986;2023-10-08T00:27:13;9.20;;;3.83;;
12878;SDS011;20617;49.476;10.986;2023-10-08T00:29:19;4.85;;;2.70;;
12878;SDS011;20617;49.476;10.986;2023-10-08T00:31:26;5.22;;;3.10;;
12878;SDS011;20617;49.476;10.986;2023-10-08T00:33:39;6.80;;;3.22;;
12878;SDS011;20617;49.476;10.986;2023-10-08T00:35:48;7.68;;;2.95;;
12878;SDS011;20617;49.476;10.986;2023-10-08T00:37:54;7.65;;;3.42;;
12878;SDS011;20617;49.476;10.986;2023-10-08T00:40:02;7.25;;;3.40;;
12878;SDS011;20617;49.476;10.986;2023-10-08T00:42:14;6.82;;;3.50;;
12878;SDS011;20617;49.476;10.986;2023-10-08T00:44:19;5.05;;;3.10;;
12878;SDS011;20617;49.476;10.986;2023-10-08T00:46:31;8.15;;;3.67;;
12878;SDS011;20617;49.476;10.986;2023-10-08T00:48:50;6.15;;;3.40;;
12878;SDS011;20617;49.476;10.986;2023-10-08T00:50:59;8.38;;;3.38;;
12878;SDS011;20617;49.476;10.986;2023-10-08T00:53:16;6.45;;;3.63;;
12878;SDS011;20617;49.476;10.986;2023-10-08T00:55:23;6.97;;;4.18;;
12878;SDS011;20617;49.476;10.986;2023-10-08T00:57:30;7.90;;;3.53;;
12878;SDS011;20617;49.476;10.986;2023-10-08T00:59:38;8.05;;;3.78;;
12878;SDS011;20617;49.476;10.986;2023-10-08T01:01:47;5.57;;;3.00;;
12878;SDS011;20617;49.476;10.986;2023-10-08T01:04:00;7.93;;;3.25;;
12878;SDS011;20617;49.476;10.986;2023-10-08T01:06:16;5.15;;;2.67;;
12878;SDS011;20617;49.476;10.986;2023-10-08T01:08:26;5.75;;;2.95;;
12878;SDS011;20617;49.476;10.986;2023-10-08T01:10:39;5.80;;;2.85;;
12878;SDS011;20617;49.476;10.986;2023-10-08T01:12:45;6.47;;;3.13;;
12878;SDS011;20617;49.476;10.986;2023-10-08T01:15:04;7.75;;;3.10;;
12878;SDS011;20617;49.476;10.986;2023-10-08T01:17:19;5.57;;;3.30;;
12878;SDS011;20617;49.476;10.986;2023-10-08T01:19:27;6.50;;;3.00;;
12878;SDS011;20617;49.476;10.986;2023-10-08T01:21:44;5.22;;;3.08;;
12878;SDS011;20617;49.476;10.986;2023-10-08T01:23:52;5.07;;;2.88;;
12878;SDS011;20617;49.476;10.986;2023-10-08T01:25:59;7.72;;;3.22;;
12878;SDS011;20617;49.476;10.986;2023-10-08T01:28:12;4.63;;;2.70;;
12878;SDS011;20617;49.476;10.986;2023-10-08T01:30:24;6.63;;;3.17;;
12878;SDS011;20617;49.476;10.986;2023-10-08T01:32:36;6.80;;;3.28;;
12878;SDS011;20617;49.476;10.986;2023-10-08T01:34:42;6.40;;;3.20;;
12878;SDS011;20617;49.476;10.986;2023-10-08T01:36:53;6.55;;;3.22;;
12878;SDS011;20617;49.476;10.986;2023-10-08T01:38:58;6.80;;;2.90;;
12878;SDS011;20617;49.476;10.986;2023-10-08T01:41:04;8.05;;;3.30;;
12878;SDS011;20617;49.476;10.986;2023-10-08T01:43:20;5.38;;;2.95;;
12878;SDS011;20617;49.476;10.986;2023-10-08T01:45:29;5.95;;;3.80;;
12878;SDS011;20617;49.476;10.986;2023-10-08T01:47:35;6.80;;;3.58;;
12878;SDS011;20617;49.476;10.986;2023-10-08T01:49:41;8.88;;;3.88;;
12878;SDS011;20617;49.476;10.986;2023-10-08T01:51:48;9.10;;;3.22;;
12878;SDS011;20617;49.476;10.986;2023-10-08T01:53:58;4.80;;;3.00;;
12878;SDS011;20617;49.476;10.986;2023-10-08T01:56:01;8.77;;;3.50;;
12878;SDS011;20617;49.476;10.986;2023-10-08T01:58:07;8.60;;;3.92;;
12878;SDS011;20617;49.476;10.986;2023-10-08T02:00:13;7.82;;;3.78;;
12878;SDS011;20617;49.476;10.986;2023-10-08T02:02:21;9.80;;;3.78;;
12878;SDS011;20617;49.476;10.986;2023-10-08T02:06:32;5.65;;;2.78;;
12878;SDS011;20617;49.476;10.986;2023-10-08T02:08:34;5.35;;;3.53;;
12878;SDS011;20617;49.476;10.986;2023-10-08T02:10:42;6.85;;;3.58;;
12878;SDS011;20617;49.476;10.986;2023-10-08T02:12:49;6.95;;;3.63;;
12878;SDS011;20617;49.476;10.986;2023-10-08T02:16:59;7.28;;;3.72;;
12878;SDS011;20617;49.476;10.986;2023-10-08T02:19:08;6.35;;;3.53;;
12878;SDS011;20617;49.476;10.986;2023-10-08T02:21:13;5.55;;;2.90;;
12878;SDS011;20617;49.476;10.986;2023-10-08T02:25:23;7.05;;;3.40;;
12878;SDS011;20617;49.476;10.986;2023-10-08T02:27:28;7.00;;;3.33;;
12878;SDS011;20617;49.476;10.986;2023-10-08T02:29:35;8.13;;;3.85;;
12878;SDS011;20617;49.476;10.986;2023-10-08T02:33:45;7.70;;;3.10;;
12878;SDS011;20617;49.476;10.986;2023-10-08T02:35:52;8.95;;;3.45;;
12878;SDS011;20617;49.476;10.986;2023-10-08T02:40:02;8.07;;;3.70;;
12878;SDS011;20617;49.476;10.986;2023-10-08T02:42:17;7.75;;;3.10;;
12878;SDS011;20617;49.476;10.986;2023-10-08T02:46:28;7.75;;;3.40;;
12878;SDS011;20617;49.476;10.986;2023-10-08T02:48:35;8.57;;;3.28;;
12878;SDS011;20617;49.476;10.986;2023-10-08T02:50:41;7.65;;;3.63;;
12878;SDS011;20617;49.476;10.986;2023-10-08T02:52:47;9.60;;;3.38;;
12878;SDS011;20617;49.476;10.986;2023-10-08T02:54:53;6.85;;;3.90;;
12878;SDS011;20617;49.476;10.986;2023-10-08T02:59:06;6.53;;;3.00;;
12878;SDS011;20617;49.476;10.986;2023-10-08T03:01:17;7.07;;;3.05;;
12878;SDS011;20617;49.476;10.986;2023-10-08T03:03:22;6.22;;;3.50;;
12878;SDS011;20617;49.476;10.986;2023-10-08T03:05:30;7.05;;;3.00;;
12878;SDS011;20617;49.476;10.986;2023-10-08T03:07:38;6.43;;;2.88;;
12878;SDS011;20617;49.476;10.986;2023-10-08T03:09:43;5.10;;;3.08;;
12878;SDS011;20617;49.476;10.986;2023-10-08T03:11:51;5.82;;;3.35;;
12878;SDS011;20617;49.476;10.986;2023-10-08T03:13:59;6.15;;;3.35;;
12878;SDS011;20617;49.476;10.986;2023-10-08T03:16:05;7.70;;;3.38;;
12878;SDS011;20617;49.476;10.986;2023-10-08T03:18:17;6.65;;;3.42;;
12878;SDS011;20617;49.476;10.986;2023-10-08T03:20:23;7.25;;;3.38;;
12878;SDS011;20617;49.476;10.986;2023-10-08T03:22:44;7.30;;;3.30;;
12878;SDS011;20617;49.476;10.986;2023-10-08T03:24:51;7.53;;;3.53;;
12878;SDS011;20617;49.476;10.986;2023-10-08T03:26:58;7.20;;;3.60;;
12878;SDS011;20617;49.476;10.986;2023-10-08T03:29:15;8.60;;;4.00;;
12878;SDS011;20617;49.476;10.986;2023-10-08T03:31:22;6.43;;;3.25;;
12878;SDS011;20617;49.476;10.986;2023-10-08T03:33:49;7.80;;;3.53;;
12878;SDS011;20617;49.476;10.986;2023-10-08T03:35:54;8.48;;;3.30;;
12878;SDS011;20617;49.476;10.986;2023-10-08T03:37:57;6.82;;;3.83;;
12878;SDS011;20617;49.476;10.986;2023-10-08T03:40:23;6.28;;;3.10;;
12878;SDS011;20617;49.476;10.986;2023-10-08T03:42:44;8.88;;;4.05;;
12878;SDS011;20617;49.476;10.986;2023-10-08T03:44:51;6.18;;;3.28;;
12878;SDS011;20617;49.476;10.986;2023-10-08T03:46:58;5.95;;;3.15;;
12878;SDS011;20617;49.476;10.986;2023-10-08T03:49:14;8.35;;;4.10;;
12878;SDS011;20617;49.476;10.986;2023-10-08T03:51:27;7.32;;;3.72;;
12878;SDS011;20617;49.476;10.986;2023-10-08T03:53:33;5.10;;;2.97;;
12878;SDS011;20617;49.476;10.986;2023-10-08T03:55:52;6.32;;;3.22;;
12878;SDS011;20617;49.476;10.986;2023-10-08T04:00:07;6.55;;;3.10;;
12878;SDS011;20617;49.476;10.986;2023-10-08T04:02:16;7.00;;;3.10;;
12878;SDS011;20617;49.476;10.986;2023-10-08T04:04:37;5.07;;;3.00;;
12878;SDS011;20617;49.476;10.986;2023-10-08T04:06:59;6.93;;;3.60;;
12878;SDS011;20617;49.476;10.986;2023-10-08T04:09:29;6.13;;;2.83;;
12878;SDS011;20617;49.476;10.986;2023-10-08T04:11:35;5.82;;;3.60;;
12878;SDS011;20617;49.476;10.986;2023-10-08T04:13:45;7.03;;;3.10;;
12878;SDS011;20617;49.476;10.986;2023-10-08T04:17:55;6.22;;;3.95;;
12878;SDS011;20617;49.476;10.986;2023-10-08T04:20:09;10.98;;;3.65;;
12878;SDS011;20617;49.476;10.986;2023-10-08T04:22:35;5.75;;;3.28;;
12878;SDS011;20617;49.476;10.986;2023-10-08T04:24:41;8.43;;;3.53;;
12878;SDS011;20617;49.476;10.986;2023-10-08T04:26:49;8.10;;;3.42;;
12878;SDS011;20617;49.476;10.986;2023-10-08T04:28:52;6.72;;;3.50;;
12878;SDS011;20617;49.476;10.986;2023-10-08T04:30:59;9.23;;;3.42;;
12878;SDS011;20617;49.476;10.986;2023-10-08T04:33:16;6.90;;;3.58;;
12878;SDS011;20617;49.476;10.986;2023-10-08T04:37:29;12.35;;;3.90;;
12878;SDS011;20617;49.476;10.986;2023-10-08T04:39:35;7.13;;;3.38;;
12878;SDS011;20617;49.476;10.986;2023-10-08T04:41:42;9.05;;;4.10;;
12878;SDS011;20617;49.476;10.986;2023-10-08T04:43:48;7.68;;;4.10;;
12878;SDS011;20617;49.476;10.986;2023-10-08T04:45:57;7.57;;;3.47;;
12878;SDS011;20617;49.476;10.986;2023-10-08T04:48:07;8.65;;;3.95;;
12878;SDS011;20617;49.476;10.986;2023-10-08T04:50:16;7.13;;;3.53;;
12878;SDS011;20617;49.476;10.986;2023-10-08T04:52:26;12.00;;;3.35;;
12878;SDS011;20617;49.476;10.986;2023-10-08T04:54:33;7.68;;;3.97;;
12878;SDS011;20617;49.476;10.986;2023-10-08T04:56:42;6.47;;;3.20;;
12878;SDS011;20617;49.476;10.986;2023-10-08T04:58:45;8.27;;;3.97;;
12878;SDS011;20617;49.476;10.986;2023-10-08T05:00:51;9.10;;;4.22;;
12878;SDS011;20617;49.476;10.986;2023-10-08T05:03:01;9.10;;;3.85;;
12878;SDS011;20617;49.476;10.986;2023-10-08T05:05:16;8.73;;;4.00;;
12878;SDS011;20617;49.476;10.986;2023-10-08T05:07:42;9.00;;;3.55;;
12878;SDS011;20617;49.476;10.986;2023-10-08T05:10:00;6.53;;;3.85;;
12878;SDS011;20617;49.476;10.986;2023-10-08T05:12:33;8.82;;;4.25;;
12878;SDS011;20617;49.476;10.986;2023-10-08T05:14:39;7.85;;;4.00;;
12878;SDS011;20617;49.476;10.986;2023-10-08T05:16:58;6.75;;;3.15;;
12878;SDS011;20617;49.476;10.986;2023-10-08T05:19:04;8.98;;;4.40;;
12878;SDS011;20617;49.476;10.986;2023-10-08T05:21:27;8.32;;;3.58;;
12878;SDS011;20617;49.476;10.986;2023-10-08T05:23:45;7.03;;;3.97;;
12878;SDS011;20617;49.476;10.986;2023-10-08T05:26:13;6.57;;;3.42;;
12878;SDS011;20617;49.476;10.986;2023-10-08T05:28:43;7.88;;;3.88;;
12878;SDS011;20617;49.476;10.986;2023-10-08T05:30:49;7.30;;;4.05;;
12878;SDS011;20617;49.476;10.986;2023-10-08T05:33:13;8.65;;;3.90;;
12878;SDS011;20617;49.476;10.986;2023-10-08T05:35:26;7.78;;;3.55;;
12878;SDS011;20617;49.476;10.986;2023-10-08T05:37:40;5.05;;;3.05;;
12878;SDS011;20617;49.476;10.986;2023-10-08T05:39:52;6.97;;;3.30;;
12878;SDS011;20617;49.476;10.986;2023-10-08T05:41:57;7.97;;;3.67;;
12878;SDS011;20617;49.476;10.986;2023-10-08T05:44:15;9.57;;;3.55;;
12878;SDS011;20617;49.476;10.986;2023-10-08T05:46:26;5.85;;;3.50;;
12878;SDS011;20617;49.476;10.986;2023-10-08T05:48:49;6.43;;;3.30;;
12878;SDS011;20617;49.476;10.986;2023-10-08T05:51:06;6.13;;;3.67;;
12878;SDS011;20617;49.476;10.986;2023-10-08T05:53:15;5.47;;;3.40;;
12878;SDS011;20617;49.476;10.986;2023-10-08T05:55:34;6.32;;;3.40;;
12878;SDS011;20617;49.476;10.986;2023-10-08T05:57:49;5.45;;;3.08;;
12878;SDS011;20617;49.476;10.986;2023-10-08T05:59:54;7.00;;;3.53;;
12878;SDS011;20617;49.476;10.986;2023-10-08T06:02:13;5.47;;;3.17;;
12878;SDS011;20617;49.476;10.986;2023-10-08T06:04:50;6.07;;;3.78;;
12878;SDS011;20617;49.476;10.986;2023-10-08T06:07:11;5.70;;;3.22;;
12878;SDS011;20617;49.476;10.986;2023-10-08T06:09:18;6.93;;;3.75;;
12878;SDS011;20617;49.476;10.986;2023-10-08T06:11:39;5.82;;;3.00;;
12878;SDS011;20617;49.476;10.986;2023-10-08T06:13:47;7.55;;;3.60;;
12878;SDS011;20617;49.476;10.986;2023-10-08T06:15:59;11.00;;;3.67;;
12878;SDS011;20617;49.476;10.986;2023-10-08T06:18:10;7.20;;;3.47;;
12878;SDS011;20617;49.476;10.986;2023-10-08T06:20:16;8.02;;;3.63;;
12878;SDS011;20617;49.476;10.986;2023-10-08T06:22:19;6.53;;;3.80;;
12878;SDS011;20617;49.476;10.986;2023-10-08T06:24:27;8.27;;;3.95;;
12878;SDS011;20617;49.476;10.986;2023-10-08T06:26:35;8.63;;;4.10;;
12878;SDS011;20617;49.476;10.986;2023-10-08T06:28:50;8.38;;;3.47;;
12878;SDS011;20617;49.476;10.986;2023-10-08T06:31:00;9.35;;;4.07;;
12878;SDS011;20617;49.476;10.986;2023-10-08T06:33:14;8.45;;;4.07;;
12878;SDS011;20617;49.476;10.986;2023-10-08T06:35:21;8.27;;;3.78;;
12878;SDS011;20617;49.476;10.986;2023-10-08T06:37:27;9.00;;;3.35;;
12878;SDS011;20617;49.476;10.986;2023-10-08T06:39:35;8.93;;;3.95;;
12878;SDS011;20617;49.476;10.986;2023-10-08T06:41:55;9.93;;;3.95;;
12878;SDS011;20617;49.476;10.986;2023-10-08T06:44:04;5.60;;;3.30;;
12878;SDS011;20617;49.476;10.986;2023-10-08T06:46:16;6.22;;;4.10;;
12878;SDS011;20617;49.476;10.986;2023-10-08T06:48:24;9.32;;;3.67;;
12878;SDS011;20617;49.476;10.986;2023-10-08T06:50:31;9.40;;;4.88;;
12878;SDS011;20617;49.476;10.986;2023-10-08T06:52:38;6.63;;;3.53;;
12878;SDS011;20617;49.476;10.986;2023-10-08T06:54:45;6.95;;;3.80;;
12878;SDS011;20617;49.476;10.986;2023-10-08T06:56:50;6.28;;;3.55;;
12878;SDS011;20617;49.476;10.986;2023-10-08T06:59:00;4.50;;;2.67;;
12878;SDS011;20617;49.476;10.986;2023-10-08T07:01:05;6.53;;;3.90;;
12878;SDS011;20617;49.476;10.986;2023-10-08T07:03:11;8.88;;;3.72;;
12878;SDS011;20617;49.476;10.986;2023-10-08T07:05:17;7.47;;;2.83;;
12878;SDS011;20617;49.476;10.986;2023-10-08T07:07:24;7.90;;;3.30;;
12878;SDS011;20617;49.476;10.986;2023-10-08T07:09:33;6.28;;;3.55;;
12878;SDS011;20617;49.476;10.986;2023-10-08T07:11:38;7.53;;;3.28;;
12878;SDS011;20617;49.476;10.986;2023-10-08T07:13:47;7.25;;;3.50;;
12878;SDS011;20617;49.476;10.986;2023-10-08T07:15:55;11.18;;;3.78;;
12878;SDS011;20617;49.476;10.986;2023-10-08T07:18:01;5.85;;;3.17;;
12878;SDS011;20617;49.476;10.986;2023-10-08T07:20:15;8.23;;;4.13;;
12878;SDS011;20617;49.476;10.986;2023-10-08T07:22:23;6.20;;;4.10;;
12878;SDS011;20617;49.476;10.986;2023-10-08T07:24:31;8.43;;;3.85;;
12878;SDS011;20617;49.476;10.986;2023-10-08T07:26:38;7.38;;;3.22;;
12878;SDS011;20617;49.476;10.986;2023-10-08T07:28:48;6.97;;;3.55;;
12878;SDS011;20617;49.476;10.986;2023-10-08T07:30:56;10.05;;;4.10;;
12878;SDS011;20617;49.476;10.986;2023-10-08T07:33:01;6.70;;;3.42;;
12878;SDS011;20617;49.476;10.986;2023-10-08T07:35:07;8.50;;;3.75;;
12878;SDS011;20617;49.476;10.986;2023-10-08T07:37:25;8.57;;;4.03;;
12878;SDS011;20617;49.476;10.986;2023-10-08T07:39:31;5.90;;;3.50;;
12878;SDS011;20617;49.476;10.986;2023-10-08T07:41:49;10.02;;;4.18;;
12878;SDS011;20617;49.476;10.986;2023-10-08T07:43:55;11.57;;;4.30;;
12878;SDS011;20617;49.476;10.986;2023-10-08T07:46:03;7.50;;;3.85;;
12878;SDS011;20617;49.476;10.986;2023-10-08T07:48:08;7.30;;;4.00;;
12878;SDS011;20617;49.476;10.986;2023-10-08T07:50:11;6.03;;;3.60;;
12878;SDS011;20617;49.476;10.986;2023-10-08T07:52:18;8.88;;;3.80;;
12878;SDS011;20617;49.476;10.986;2023-10-08T07:54:20;5.53;;;3.80;;
12878;SDS011;20617;49.476;10.986;2023-10-08T07:56:29;6.50;;;3.97;;
12878;SDS011;20617;49.476;10.986;2023-10-08T07:58:35;8.25;;;3.97;;
12878;SDS011;20617;49.476;10.986;2023-10-08T08:00:40;9.60;;;4.13;;
12878;SDS011;20617;49.476;10.986;2023-10-08T08:02:46;6.00;;;3.58;;
12878;SDS011;20617;49.476;10.986;2023-10-08T08:04:52;7.18;;;3.80;;
12878;SDS011;20617;49.476;10.986;2023-10-08T08:06:58;8.73;;;4.20;;
12878;SDS011;20617;49.476;10.986;2023-10-08T08:09:06;7.80;;;3.97;;
12878;SDS011;20617;49.476;10.986;2023-10-08T08:11:19;7.63;;;4.43;;
12878;SDS011;20617;49.476;10.986;2023-10-08T08:13:28;9.98;;;4.47;;
12878;SDS011;20617;49.476;10.986;2023-10-08T08:17:42;7.95;;;4.20;;
12878;SDS011;20617;49.476;10.986;2023-10-08T08:19:52;9.27;;;4.38;;
12878;SDS011;20617;49.476;10.986;2023-10-08T08:21:57;8.10;;;4.22;;
12878;SDS011;20617;49.476;10.986;2023-10-08T08:24:05;8.80;;;4.28;;
12878;SDS011;20617;49.476;10.986;2023-10-08T08:26:11;9.27;;;4.35;;
12878;SDS011;20617;49.476;10.986;2023-10-08T08:28:28;8.52;;;4.00;;
12878;SDS011;20617;49.476;10.986;2023-10-08T08:30:31;9.63;;;4.40;;
12878;SDS011;20617;49.476;10.986;2023-10-08T08:32:39;8.48;;;4.30;;
12878;SDS011;20617;49.476;10.986;2023-10-08T08:34:48;9.23;;;4.93;;
12878;SDS011;20617;49.476;10.986;2023-10-08T08:36:52;9.00;;;4.05;;
12878;SDS011;20617;49.476;10.986;2023-10-08T08:38:57;11.75;;;4.15;;
12878;SDS011;20617;49.476;10.986;2023-10-08T08:41:02;9.50;;;3.95;;
12878;SDS011;20617;49.476;10.986;2023-10-08T08:43:09;8.85;;;4.20;;
12878;SDS011;20617;49.476;10.986;2023-10-08T08:45:16;7.70;;;4.20;;
12878;SDS011;20617;49.476;10.986;2023-10-08T08:47:24;15.60;;;5.28;;
12878;SDS011;20617;49.476;10.986;2023-10-08T08:49:32;8.85;;;4.18;;
12878;SDS011;20617;49.476;10.986;2023-10-08T08:51:41;9.55;;;4.32;;
12878;SDS011;20617;49.476;10.986;2023-10-08T08:53:50;8.90;;;4.03;;
12878;SDS011;20617;49.476;10.986;2023-10-08T08:55:55;11.68;;;4.75;;
12878;SDS011;20617;49.476;10.986;2023-10-08T08:58:01;12.10;;;4.35;;
12878;SDS011;20617;49.476;10.986;2023-10-08T09:00:13;8.93;;;4.60;;
12878;SDS011;20617;49.476;10.986;2023-10-08T09:02:21;9.05;;;4.35;;
12878;SDS011;20617;49.476;10.986;2023-10-08T09:04:27;10.25;;;4.50;;
12878;SDS011;20617;49.476;10.986;2023-10-08T09:06:32;9.50;;;4.45;;
12878;SDS011;20617;49.476;10.986;2023-10-08T09:08:42;11.38;;;4.18;;
12878;SDS011;20617;49.476;10.986;2023-10-08T09:10:47;8.48;;;3.67;;
12878;SDS011;20617;49.476;10.986;2023-10-08T09:12:56;11.38;;;3.83;;
12878;SDS011;20617;49.476;10.986;2023-10-08T09:17:07;9.32;;;4.70;;
12878;SDS011;20617;49.476;10.986;2023-10-08T09:19:13;7.93;;;4.15;;
12878;SDS011;20617;49.476;10.986;2023-10-08T09:21:20;7.07;;;3.95;;
12878;SDS011;20617;49.476;10.986;2023-10-08T09:25:30;12.15;;;4.82;;
12878;SDS011;20617;49.476;10.986;2023-10-08T09:27:35;9.23;;;4.22;;
12878;SDS011;20617;49.476;10.986;2023-10-08T09:29:48;8.38;;;4.45;;
12878;SDS011;20617;49.476;10.986;2023-10-08T09:33:57;7.57;;;4.40;;
12878;SDS011;20617;49.476;10.986;2023-10-08T09:36:04;8.95;;;4.15;;
12878;SDS011;20617;49.476;10.986;2023-10-08T09:38:12;6.82;;;3.90;;
12878;SDS011;20617;49.476;10.986;2023-10-08T09:40:24;9.50;;;4.82;;
12878;SDS011;20617;49.476;10.986;2023-10-08T09:42:32;8.32;;;4.40;;
12878;SDS011;20617;49.476;10.986;2023-10-08T09:44:39;9.95;;;4.38;;
12878;SDS011;20617;49.476;10.986;2023-10-08T09:46:45;10.40;;;4.68;;
12878;SDS011;20617;49.476;10.986;2023-10-08T09:48:57;11.93;;;4.38;;
12878;SDS011;20617;49.476;10.986;2023-10-08T09:51:05;7.10;;;3.40;;
12878;SDS011;20617;49.476;10.986;2023-10-08T09:53:13;11.13;;;4.85;;
12878;SDS011;20617;49.476;10.986;2023-10-08T09:55:22;7.55;;;3.95;;
12878;SDS011;20617;49.476;10.986;2023-10-08T09:57:28;9.18;;;4.55;;
12878;SDS011;20617;49.476;10.986;2023-10-08T09:59:37;9.43;;;4.65;;
12878;SDS011;20617;49.476;10.986;2023-10-08T10:01:45;6.07;;;3.83;;
12878;SDS011;20617;49.476;10.986;2023-10-08T10:03:52;9.40;;;4.78;;
12878;SDS011;20617;49.476;10.986;2023-10-08T10:05:57;9.70;;;4.50;;
12878;SDS011;20617;49.476;10.986;2023-10-08T10:08:04;8.48;;;4.35;;
12878;SDS011;20617;49.476;10.986;2023-10-08T10:10:26;10.88;;;4.13;;
12878;SDS011;20617;49.476;10.986;2023-10-08T10:12:32;14.02;;;5.32;;
12878;SDS011;20617;49.476;10.986;2023-10-08T10:14:44;9.35;;;4.55;;
12878;SDS011;20617;49.476;10.986;2023-10-08T10:17:07;9.77;;;5.05;;
12878;SDS011;20617;49.476;10.986;2023-10-08T10:19:16;9.48;;;5.07;;
12878;SDS011;20617;49.476;10.986;2023-10-08T10:21:25;12.75;;;5.10;;
12878;SDS011;20617;49.476;10.986;2023-10-08T10:23:40;9.98;;;4.97;;
12878;SDS011;20617;49.476;10.986;2023-10-08T10:25:45;10.77;;;4.18;;
12878;SDS011;20617;49.476;10.986;2023-10-08T10:30:32;10.75;;;4.90;;
12878;SDS011;20617;49.476;10.986;2023-10-08T10:32:38;12.38;;;4.85;;
12878;SDS011;20617;49.476;10.986;2023-10-08T10:36:49;9.73;;;4.70;;
12878;SDS011;20617;49.476;10.986;2023-10-08T10:38:58;11.60;;;5.55;;
12878;SDS011;20617;49.476;10.986;2023-10-08T10:41:03;10.25;;;4.90;;
12878;SDS011;20617;49.476;10.986;2023-10-08T10:43:10;8.43;;;4.85;;
12878;SDS011;20617;49.476;10.986;2023-10-08T10:45:18;13.05;;;4.93;;
12878;SDS011;20617;49.476;10.986;2023-10-08T10:47:37;11.88;;;5.03;;
12878;SDS011;20617;49.476;10.986;2023-10-08T10:49:49;16.50;;;5.50;;
12878;SDS011;20617;49.476;10.986;2023-10-08T10:51:54;11.95;;;4.90;;
12878;SDS011;20617;49.476;10.986;2023-10-08T10:54:00;11.98;;;4.78;;
12878;SDS011;20617;49.476;10.986;2023-10-08T10:56:13;11.27;;;4.70;;
12878;SDS011;20617;49.476;10.986;2023-10-08T10:58:20;10.60;;;5.15;;
12878;SDS011;20617;49.476;10.986;2023-10-08T11:00:26;9.65;;;4.50;;
12878;SDS011;20617;49.476;10.986;2023-10-08T11:02:47;10.40;;;4.75;;
12878;SDS011;20617;49.476;10.986;2023-10-08T11:04:53;9.68;;;4.85;;
12878;SDS011;20617;49.476;10.986;2023-10-08T11:07:08;9.70;;;5.75;;
12878;SDS011;20617;49.476;10.986;2023-10-08T11:09:14;14.70;;;5.22;;
12878;SDS011;20617;49.476;10.986;2023-10-08T11:11:37;11.63;;;6.03;;
12878;SDS011;20617;49.476;10.986;2023-10-08T11:13:45;11.70;;;5.00;;
12878;SDS011;20617;49.476;10.986;2023-10-08T11:15:56;13.73;;;5.88;;
12878;SDS011;20617;49.476;10.986;2023-10-08T11:18:06;11.55;;;5.05;;
12878;SDS011;20617;49.476;10.986;2023-10-08T11:20:25;9.10;;;4.43;;
12878;SDS011;20617;49.476;10.986;2023-10-08T11:22:40;11.27;;;4.72;;
12878;SDS011;20617;49.476;10.986;2023-10-08T11:24:47;11.45;;;4.75;;
12878;SDS011;20617;49.476;10.986;2023-10-08T11:26:56;11.05;;;4.68;;
12878;SDS011;20617;49.476;10.986;2023-10-08T11:29:17;10.40;;;4.57;;
12878;SDS011;20617;49.476;10.986;2023-10-08T11:31:27;10.65;;;5.15;;
12878;SDS011;20617;49.476;10.986;2023-10-08T11:33:39;11.20;;;4.80;;
12878;SDS011;20617;49.476;10.986;2023-10-08T11:35:56;9.77;;;4.53;;
12878;SDS011;20617;49.476;10.986;2023-10-08T11:38:08;8.05;;;4.78;;
12878;SDS011;20617;49.476;10.986;2023-10-08T11:40:22;10.85;;;5.38;;
12878;SDS011;20617;49.476;10.986;2023-10-08T11:42:31;11.30;;;5.53;;
12878;SDS011;20617;49.476;10.986;2023-10-08T11:44:46;12.15;;;5.13;;
12878;SDS011;20617;49.476;10.986;2023-10-08T11:46:54;10.70;;;5.15;;
12878;SDS011;20617;49.476;10.986;2023-10-08T11:49:09;12.13;;;5.13;;
12878;SDS011;20617;49.476;10.986;2023-10-08T11:51:22;8.57;;;4.75;;
12878;SDS011;20617;49.476;10.986;2023-10-08T11:53:30;15.32;;;5.88;;
12878;SDS011;20617;49.476;10.986;2023-10-08T11:55:38;8.52;;;4.93;;
12878;SDS011;20617;49.476;10.986;2023-10-08T11:57:45;11.27;;;4.90;;
12878;SDS011;20617;49.476;10.986;2023-10-08T11:59:53;10.23;;;5.18;;
12878;SDS011;20617;49.476;10.986;2023-10-08T12:01:59;8.52;;;4.97;;
12878;SDS011;20617;49.476;10.986;2023-10-08T12:04:04;12.15;;;5.45;;
12878;SDS011;20617;49.476;10.986;2023-10-08T12:06:18;8.77;;;4.63;;
12878;SDS011;20617;49.476;10.986;2023-10-08T12:08:26;12.75;;;5.13;;
12878;SDS011;20617;49.476;10.986;2023-10-08T12:10:29;13.75;;;6.13;;
12878;SDS011;20617;49.476;10.986;2023-10-08T12:12:36;10.80;;;4.70;;
12878;SDS011;20617;49.476;10.986;2023-10-08T12:14:42;9.75;;;4.47;;
12878;SDS011;20617;49.476;10.986;2023-10-08T12:16:49;9.95;;;5.47;;
12878;SDS011;20617;49.476;10.986;2023-10-08T12:18:55;11.85;;;4.88;;
12878;SDS011;20617;49.476;10.986;2023-10-08T12:21:00;13.27;;;5.43;;
12878;SDS011;20617;49.476;10.986;2023-10-08T12:23:06;8.45;;;4.25;;
12878;SDS011;20617;49.476;10.986;2023-10-08T12:25:12;10.43;;;4.78;;
12878;SDS011;20617;49.476;10.986;2023-10-08T12:29:23;8.60;;;4.75;;
12878;SDS011;20617;49.476;10.986;2023-10-08T12:31:28;10.07;;;4.65;;
12878;SDS011;20617;49.476;10.986;2023-10-08T12:33:35;10.23;;;5.10;;
12878;SDS011;20617;49.476;10.986;2023-10-08T12:35:42;9.20;;;5.15;;
12878;SDS011;20617;49.476;10.986;2023-10-08T12:37:46;9.73;;;4.93;;
12878;SDS011;20617;49.476;10.986;2023-10-08T12:39:54;11.20;;;4.93;;
12878;SDS011;20617;49.476;10.986;2023-10-08T12:42:11;11.13;;;5.43;;
12878;SDS011;20617;49.476;10.986;2023-10-08T12:46:21;14.38;;;5.60;;
12878;SDS011;20617;49.476;10.986;2023-10-08T12:48:33;15.60;;;6.07;;
12878;SDS011;20617;49.476;10.986;2023-10-08T12:50:39;12.68;;;5.03;;
12878;SDS011;20617;49.476;10.986;2023-10-08T12:52:46;16.55;;;5.38;;
12878;SDS011;20617;49.476;10.986;2023-10-08T12:54:58;10.15;;;5.00;;
12878;SDS011;20617;49.476;10.986;2023-10-08T12:57:05;12.85;;;5.20;;
12878;SDS011;20617;49.476;10.986;2023-10-08T12:59:10;14.73;;;6.35;;
12878;SDS011;20617;49.476;10.986;2023-10-08T13:01:23;11.30;;;4.95;;
12878;SDS011;20617;49.476;10.986;2023-10-08T13:03:30;9.35;;;5.20;;
12878;SDS011;20617;49.476;10.986;2023-10-08T13:05:43;11.35;;;4.90;;
12878;SDS011;20617;49.476;10.986;2023-10-08T13:07:49;11.40;;;5.20;;
12878;SDS011;20617;49.476;10.986;2023-10-08T13:09:59;15.25;;;5.30;;
12878;SDS011;20617;49.476;10.986;2023-10-08T13:12:06;12.05;;;4.68;;
12878;SDS011;20617;49.476;10.986;2023-10-08T13:14:12;11.15;;;5.68;;
12878;SDS011;20617;49.476;10.986;2023-10-08T13:16:18;14.43;;;5.28;;
12878;SDS011;20617;49.476;10.986;2023-10-08T13:18:23;11.02;;;5.07;;
12878;SDS011;20617;49.476;10.986;2023-10-08T13:20:28;11.20;;;5.65;;
12878;SDS011;20617;49.476;10.986;2023-10-08T13:22:35;11.13;;;5.88;;
12878;SDS011;20617;49.476;10.986;2023-10-08T13:24:40;11.95;;;4.80;;